Domov               UVHVVR             MKGP            O straneh              
ZDRAVSTVENO VARSTVO RASTLIN
  MREŽA AGROMET. POSTAJ
 ► PROGNOSTIČNA OBVESTILA
AGROMETEOROLOŠKI PODATKI -
ARSO
OBVLADOVANJE TVEGANJ ZARADI
NEUGODNIH VREMENSKIH RAZMER
  ► NARAVNE NESREČE
  ► SUŠA/MOČA
  ► NAMAKANJE
  ► ŽLED (gozdarstvo)
KARTOGRAFSKI PRIKAZI
SPLETNE POVEZAVE
PROJEKTI IN PUBLIKACIJE

AGROMETEOROLOŠKA MREŽA: VREMENSKE POSTAJE IN FENOLOŠKA OPAZOVANJA

Pregled podatkov za lokacijo Sremič, meteorološka postaja 49592

Pregled senzorjev na lokaciji

ID Ime Zadnja
vrednost
Datum
zadnje
spremembe
Tip
senzorja
3947 Omočenost lista (U) 0 U 24.3.2019 13:00 A730WET
3948 Padavine (mm) 0 mm 24.3.2019 12:59 Generic 0.2 mm
3945 Relativna vlaga 2 m (% RH) 40,55 % RH 24.3.2019 13:00 Generic 0 - 100 %
3946 Temperatura 2 m (°C) 16,88 °C 24.3.2019 13:00 Generic -40 - +60 °C

Pregled podatkov zadnjih 24 ur

Zap.
št.
Datum in čas Sremič
Omočenost
lista
Padavine Relativna
vlaga
2
m
Temperatura
2
m
1 24.3.2019 12:00 0 0 40,5 16,9
2 24.3.2019 11:30 0 0 43,6 16,7
3 24.3.2019 11:00 0 0 39,1 16,5
4 24.3.2019 10:30 0 0 43,5 15,5
5 24.3.2019 10:00 0 0 46,1 15,2
6 24.3.2019 09:30 0 0 44,1 14,3
7 24.3.2019 09:00 0 0 49,9 11,4
8 24.3.2019 08:30 0 0 56,4 9
9 24.3.2019 08:00 0 0 61,5 7,7
10 24.3.2019 07:30 0 0 56,9 8,6
11 24.3.2019 07:00 1 0 58,1 8,3
12 24.3.2019 06:30 1 0 57,3 8,4
13 24.3.2019 06:00 1 0 56,7 8,5
14 24.3.2019 05:30 1 0 55 8,9
15 24.3.2019 05:00 0 0 51,3 9,7
16 24.3.2019 04:30 0 0 53,6 9,2
17 24.3.2019 04:00 1 0 51,3 9,7
18 24.3.2019 03:30 0 0 45 11
19 24.3.2019 03:00 0 0 43,8 11,4
20 24.3.2019 02:30 0 0 43,8 11,3
21 24.3.2019 02:00 0 0 41,5 12,1
22 24.3.2019 01:30 0 0 42 12
23 24.3.2019 01:00 0 0 40,5 12,4
24 24.3.2019 00:30 0 0 41,2 12,2
25 24.3.2019 00:00 0 0 40 12,5
26 23.3.2019 23:30 0 0 39,6 12,7
27 23.3.2019 23:00 0 0 40 12,6
28 23.3.2019 22:30 0 0 39,2 12,9
29 23.3.2019 22:00 0 0 37,4 13,5
30 23.3.2019 21:30 0 0 36,8 13,6
31 23.3.2019 21:00 0 0 37,1 13,6
32 23.3.2019 20:30 0 0 36,9 13,7
33 23.3.2019 20:00 0 0 36,5 13,9
34 23.3.2019 19:30 0 0 37,4 14
35 23.3.2019 19:00 0 0 37,5 14,1
36 23.3.2019 18:30 0 0 37,7 14,4
37 23.3.2019 18:00 0 0 36,6 14,9
38 23.3.2019 17:30 0 0 35,8 15,4
39 23.3.2019 17:00 0 0 34,5 15,9
40 23.3.2019 16:30 0 0 33,1 16,3
41 23.3.2019 16:00 0 0 31,9 16,7
42 23.3.2019 15:30 0 0 32,4 16,9
43 23.3.2019 15:00 0 0 32,8 16,5
44 23.3.2019 14:30 0 0 32 16,4
45 23.3.2019 14:00 0 0 32,3 16,5
46 23.3.2019 13:30 0 0 31,7 16,2
47 23.3.2019 13:00 0 0 33,7 15,9
48 23.3.2019 12:30 0 0 35,4 15,5
© 2011 Ministrstvo za kmetijstvo, gozdarstvo in prehrano. Vse pravice pridržane.